Time;durP1;ratioP1;P1;durP2;ratioP2;P2;SDS_P1;SDS_P2;PMS_P1;PMS_P2;Temp;Humidity;BMP_temperature;BMP_pressure;BME280_temperature;BME280_humidity;BME280_pressure;Samples;Min_cycle;Max_cycle;Signal;HPM_P1;HPM_P2
2023/07/03 00:00:12;;;;;;;1999.90;999.90;;;15.00;99.90;;;;;;5053196;28;20780;-72
2023/07/03 00:02:40;;;;;;;1999.90;999.90;;;15.20;99.90;;;;;;5059601;28;20047;-71
2023/07/03 00:05:08;;;;;;;1999.90;999.90;;;15.30;99.90;;;;;;5054202;28;20060;-70
2023/07/03 00:07:36;;;;;;;1999.90;999.90;;;15.50;99.90;;;;;;5056504;28;20053;-71
2023/07/03 00:10:04;;;;;;;1999.90;999.90;;;15.70;99.90;;;;;;5053296;28;20017;-72
2023/07/03 00:12:32;;;;;;;1999.90;999.90;;;15.90;99.90;;;;;;5061896;28;20338;-71
2023/07/03 00:14:59;;;;;;;1999.90;999.90;;;15.90;99.90;;;;;;5056774;28;20033;-71
2023/07/03 00:17:27;;;;;;;1999.90;999.90;;;16.00;99.90;;;;;;5058707;28;20033;-71
2023/07/03 00:19:54;;;;;;;1999.90;999.90;;;16.10;99.90;;;;;;5055380;28;20029;-71
2023/07/03 00:22:21;;;;;;;1999.90;999.90;;;16.20;99.90;;;;;;5057802;28;20433;-72
2023/07/03 00:24:49;;;;;;;1999.90;999.90;;;16.20;99.90;;;;;;5054042;28;20021;-73
2023/07/03 00:27:17;;;;;;;1999.90;999.90;;;16.20;99.90;;;;;;5057415;28;20048;-72
2023/07/03 00:29:44;;;;;;;1999.90;999.90;;;16.20;99.90;;;;;;5058687;28;20563;-71
2023/07/03 00:32:11;;;;;;;1999.90;999.90;;;16.30;99.90;;;;;;5057090;28;20085;-73
2023/07/03 00:34:39;;;;;;;1999.90;999.90;;;16.40;99.90;;;;;;5054202;28;20032;-72
2023/07/03 00:37:06;;;;;;;1999.90;999.90;;;16.50;99.90;;;;;;5053457;28;20059;-72
2023/07/03 00:39:34;;;;;;;1999.90;999.90;;;16.80;99.90;;;;;;5050727;28;20021;-72
2023/07/03 00:42:02;;;;;;;1999.90;999.90;;;16.80;99.90;;;;;;5054323;28;20029;-72
2023/07/03 00:44:30;;;;;;;1999.90;999.90;;;17.00;99.90;;;;;;5051886;28;20039;-72
2023/07/03 00:46:57;;;;;;;1999.90;999.90;;;17.20;99.90;;;;;;5048686;28;20095;-73
2023/07/03 00:49:26;;;;;;;1999.90;999.90;;;17.20;99.90;;;;;;5055639;28;20037;-73
2023/07/03 00:51:56;;;;;;;1999.90;999.90;;;17.40;99.90;;;;;;5049048;28;20035;-71
2023/07/03 00:54:23;;;;;;;1999.90;999.90;;;17.40;99.90;;;;;;5049800;28;20037;-72
2023/07/03 00:56:51;;;;;;;1999.90;999.90;;;17.50;99.90;;;;;;5046242;28;20074;-72
2023/07/03 00:59:19;;;;;;;1999.90;999.90;;;17.50;99.20;;;;;;5046693;28;20033;-72
2023/07/03 01:01:55;;;;;;;1999.90;999.90;;;17.40;99.00;;;;;;5046317;28;20120;-71
2023/07/03 01:04:55;;;;;;;1999.90;999.90;;;17.30;99.40;;;;;;5048175;28;20060;-72
2023/07/03 01:07:32;;;;;;;1999.90;999.90;;;17.10;99.60;;;;;;5053689;28;20526;-72
2023/07/03 01:10:07;;;;;;;1999.90;999.90;;;17.00;99.70;;;;;;5053976;28;20548;-72
2023/07/03 01:12:41;;;;;;;1999.90;999.90;;;16.90;99.90;;;;;;5046733;28;20058;-71
2023/07/03 01:15:11;;;;;;;1999.90;999.90;;;16.90;99.90;;;;;;5058609;28;20024;-72
2023/07/03 01:17:41;;;;;;;1999.90;999.90;;;17.10;99.90;;;;;;5050978;28;20324;-72
2023/07/03 01:20:13;;;;;;;1999.90;999.90;;;17.30;99.90;;;;;;5053778;28;20366;-72
2023/07/03 01:22:49;;;;;;;1999.90;999.90;;;17.50;99.70;;;;;;5057242;28;20029;-72
2023/07/03 01:25:20;;;;;;;1999.90;999.90;;;17.60;99.40;;;;;;5053024;28;20124;-71
2023/07/03 01:27:50;;;;;;;1999.90;999.90;;;17.90;99.30;;;;;;5055178;28;20035;-72
2023/07/03 01:30:20;;;;;;;1999.90;999.90;;;18.20;98.90;;;;;;5054906;28;20085;-72
2023/07/03 01:32:53;;;;;;;1999.90;999.90;;;18.50;97.90;;;;;;5054697;28;20041;-71
2023/07/03 01:35:23;;;;;;;1999.90;999.90;;;19.00;98.30;;;;;;5056543;28;20033;-72
2023/07/03 01:37:52;;;;;;;1999.90;999.90;;;19.50;97.30;;;;;;5052566;28;20017;-72
2023/07/03 01:40:23;;;;;;;1999.90;999.90;;;19.60;97.70;;;;;;5053880;28;20024;-72
2023/07/03 01:42:53;;;;;;;1999.90;999.90;;;20.10;96.90;;;;;;5055086;28;20101;-72
2023/07/03 01:45:21;;;;;;;1999.90;999.90;;;21.70;95.50;;;;;;5043552;28;20043;-72
2023/07/03 01:47:48;;;;;;;1999.90;999.90;;;22.90;94.90;;;;;;5056724;28;20040;-70
2023/07/03 01:50:24;;;;;;;1999.90;999.90;;;24.20;93.70;;;;;;5055654;28;20039;-71
2023/07/03 01:52:54;;;;;;;;;;;25.00;91.50;;;;;;5056834;28;20025;-71
2023/07/03 01:55:39;;;;;;;1999.90;999.90;;;25.50;91.30;;;;;;5051603;28;20379;-71
2023/07/03 01:58:41;;;;;;;1999.90;999.90;;;26.10;90.00;;;;;;5055002;28;20030;-71
2023/07/03 02:01:15;;;;;;;1999.90;999.90;;;26.50;88.80;;;;;;5048799;28;20021;-71
2023/07/03 02:04:06;;;;;;;1999.90;999.90;;;26.70;87.30;;;;;;5052655;28;20025;-71
2023/07/03 02:06:40;;;;;;;1999.90;999.90;;;26.10;86.90;;;;;;5050901;28;20118;-71
2023/07/03 02:09:09;;;;;;;1999.90;999.90;;;25.50;87.10;;;;;;5047314;28;20025;-71
2023/07/03 02:11:36;;;;;;;1999.90;999.90;;;24.90;89.20;;;;;;5057291;28;20025;-70
2023/07/03 02:14:05;;;;;;;1999.90;999.90;;;25.00;89.30;;;;;;5059826;28;20104;-71
2023/07/03 02:16:32;;;;;;;1999.90;999.90;;;25.30;89.90;;;;;;5050237;28;20510;-71
2023/07/03 02:18:59;;;;;;;1999.90;999.90;;;25.60;89.80;;;;;;5054967;28;20048;-70
2023/07/03 02:21:29;;;;;;;1999.90;999.90;;;25.80;89.90;;;;;;5044534;28;20215;-71
2023/07/03 02:23:56;;;;;;;1999.90;999.90;;;26.30;89.80;;;;;;5057259;28;20059;-71
2023/07/03 02:26:23;;;;;;;1999.90;999.90;;;26.30;89.90;;;;;;5058221;28;20037;-71
2023/07/03 02:28:51;;;;;;;1999.90;999.90;;;26.30;89.10;;;;;;5064041;28;20028;-71
2023/07/03 02:31:18;;;;;;;1999.90;999.90;;;25.90;89.40;;;;;;5059216;28;20094;-69
2023/07/03 02:33:45;;;;;;;1999.90;999.90;;;25.30;89.40;;;;;;5049691;28;20029;-70
2023/07/03 02:36:12;;;;;;;1999.90;999.90;;;24.90;89.40;;;;;;5050011;28;20120;-70
2023/07/03 02:38:40;;;;;;;1999.90;999.90;;;24.60;89.80;;;;;;5040320;28;20076;-72
2023/07/03 02:41:07;;;;;;;1999.90;999.90;;;24.60;90.00;;;;;;5048170;28;20055;-71
2023/07/03 02:43:35;;;;;;;1999.90;999.90;;;24.90;90.00;;;;;;5053032;28;20086;-69
2023/07/03 02:46:07;;;;;;;1999.90;999.90;;;24.30;88.40;;;;;;5048955;28;20029;-71
2023/07/03 02:48:34;;;;;;;1999.90;999.90;;;24.00;90.00;;;;;;5044338;28;20398;-71
2023/07/03 02:51:02;;;;;;;1999.90;999.90;;;24.00;90.80;;;;;;5049542;28;20113;-71
2023/07/03 02:53:29;;;;;;;1999.90;999.90;;;24.30;90.30;;;;;;5060014;28;20024;-72
2023/07/03 02:55:56;;;;;;;1999.90;999.90;;;24.50;90.00;;;;;;5054879;28;20025;-71
2023/07/03 02:58:25;;;;;;;1999.90;999.90;;;24.60;90.00;;;;;;5058663;28;20059;-70
2023/07/03 03:00:55;;;;;;;1999.90;999.90;;;24.70;90.10;;;;;;5052674;28;20033;-69
2023/07/03 03:03:22;;;;;;;1999.90;999.90;;;24.70;90.00;;;;;;5062377;28;20100;-70
2023/07/03 03:05:49;;;;;;;1999.90;999.90;;;24.40;89.60;;;;;;5047145;28;20037;-70
2023/07/03 03:08:16;;;;;;;1999.90;999.90;;;24.20;90.00;;;;;;5053313;28;20692;-71
2023/07/03 03:10:44;;;;;;;1999.90;999.90;;;23.90;90.00;;;;;;5043971;28;20127;-70
2023/07/03 03:13:11;;;;;;;1999.90;999.90;;;23.60;91.10;;;;;;5057142;28;20016;-71
2023/07/03 03:15:38;;;;;;;1999.90;999.90;;;23.40;91.10;;;;;;5050676;28;20060;-71
2023/07/03 03:18:06;;;;;;;1999.90;999.90;;;23.30;91.00;;;;;;5060346;28;20028;-71
2023/07/03 03:20:33;;;;;;;1999.90;999.90;;;23.00;91.00;;;;;;5042421;28;20033;-72
2023/07/03 03:23:01;;;;;;;1999.90;999.90;;;22.70;91.30;;;;;;5057629;28;20031;-70
2023/07/03 03:25:29;;;;;;;1999.90;999.90;;;22.40;91.80;;;;;;5059553;28;20392;-71
2023/07/03 03:27:58;;;;;;;1999.90;999.90;;;22.10;92.30;;;;;;5052645;28;20032;-71
2023/07/03 03:30:25;;;;;;;1999.90;999.90;;;21.90;92.70;;;;;;5049530;28;20086;-71
2023/07/03 03:32:52;;;;;;;1999.90;999.90;;;21.80;92.80;;;;;;5053562;28;20041;-71
2023/07/03 03:35:19;;;;;;;1999.90;999.90;;;21.70;93.10;;;;;;5053705;28;20021;-71
2023/07/03 03:37:47;;;;;;;1999.90;999.90;;;21.60;93.10;;;;;;5054267;28;20108;-72
2023/07/03 03:40:14;;;;;;;1999.90;999.90;;;21.60;93.20;;;;;;5044887;28;20033;-71
2023/07/03 03:42:42;;;;;;;1999.90;999.90;;;21.40;93.30;;;;;;5053843;28;20119;-72
2023/07/03 03:45:09;;;;;;;1999.90;999.90;;;21.20;93.50;;;;;;5048528;28;20150;-71
2023/07/03 03:47:37;;;;;;;1999.90;999.90;;;21.00;93.60;;;;;;5059457;28;20024;-72
2023/07/03 03:50:04;;;;;;;1999.90;999.90;;;20.80;93.70;;;;;;5055375;28;20496;-71
2023/07/03 03:52:32;;;;;;;1999.90;999.90;;;20.50;94.20;;;;;;5058122;28;20025;-72
2023/07/03 03:54:59;;;;;;;1999.90;999.90;;;20.50;94.50;;;;;;5055347;28;20051;-73
2023/07/03 03:57:26;;;;;;;1999.90;999.90;;;20.40;95.10;;;;;;5054501;28;20025;-72
2023/07/03 03:59:54;;;;;;;1999.90;999.90;;;20.40;94.70;;;;;;5053001;28;20029;-71
2023/07/03 04:02:21;;;;;;;1999.90;999.90;;;20.30;94.90;;;;;;5055200;28;20033;-71
2023/07/03 04:04:48;;;;;;;1999.90;999.90;;;20.20;94.80;;;;;;5051414;28;20826;-71
2023/07/03 04:07:16;;;;;;;1999.90;999.90;;;20.00;95.10;;;;;;5050344;28;20045;-71
2023/07/03 04:09:44;;;;;;;1999.90;999.90;;;19.80;95.50;;;;;;5042202;28;20064;-70
2023/07/03 04:12:13;;;;;;;1999.90;999.90;;;19.70;95.80;;;;;;5049891;28;20078;-70
2023/07/03 04:14:42;;;;;;;1999.90;999.90;;;19.50;96.20;;;;;;5052748;28;20152;-71
2023/07/03 04:17:10;;;;;;;1999.90;999.90;;;19.50;95.90;;;;;;5045097;28;20037;-71
2023/07/03 04:19:37;;;;;;;1999.90;999.90;;;19.40;95.90;;;;;;5051176;28;20043;-71
2023/07/03 04:22:04;;;;;;;1999.90;999.90;;;19.40;96.20;;;;;;5053074;28;20044;-71
2023/07/03 04:24:32;;;;;;;1999.90;999.90;;;19.30;96.40;;;;;;5052997;28;20029;-72
2023/07/03 04:26:59;;;;;;;1999.90;999.90;;;19.30;96.60;;;;;;5051472;28;20064;-73
2023/07/03 04:29:26;;;;;;;1999.90;999.90;;;19.30;96.60;;;;;;5047791;28;20027;-72
2023/07/03 04:31:54;;;;;;;1999.90;999.90;;;19.30;96.40;;;;;;5044523;28;20112;-72
2023/07/03 04:34:21;;;;;;;1999.90;999.90;;;19.30;96.60;;;;;;5049472;28;20383;-73
2023/07/03 04:36:49;;;;;;;1999.90;999.90;;;19.30;96.60;;;;;;5055611;28;20036;-72
2023/07/03 04:39:16;;;;;;;1999.90;999.90;;;19.20;96.80;;;;;;5052296;28;20029;-73
2023/07/03 04:41:43;;;;;;;1999.90;999.90;;;19.40;96.50;;;;;;5056148;28;20028;-71
2023/07/03 04:44:12;;;;;;;1999.90;999.90;;;19.40;96.50;;;;;;5058619;28;20063;-71
2023/07/03 04:46:42;;;;;;;1999.90;999.90;;;19.50;96.90;;;;;;5060655;28;20170;-71
2023/07/03 04:49:10;;;;;;;1999.90;999.90;;;19.60;96.60;;;;;;5051442;28;20373;-69
2023/07/03 04:51:39;;;;;;;1999.90;999.90;;;19.60;96.40;;;;;;5055532;28;20025;-71
2023/07/03 04:54:07;;;;;;;1999.90;999.90;;;19.50;96.40;;;;;;5053033;28;20024;-73
2023/07/03 04:56:35;;;;;;;1999.90;999.90;;;19.40;96.70;;;;;;5053119;28;20044;-71
2023/07/03 04:59:02;;;;;;;1999.90;999.90;;;19.30;96.80;;;;;;5052730;28;20112;-71
2023/07/03 05:01:30;;;;;;;1999.90;999.90;;;19.20;97.00;;;;;;5056710;28;20024;-72
2023/07/03 05:03:57;;;;;;;1999.90;999.90;;;19.20;96.80;;;;;;5058143;28;20066;-72
2023/07/03 05:06:25;;;;;;;1999.90;999.90;;;19.00;97.00;;;;;;5047531;28;20060;-70
2023/07/03 05:08:53;;;;;;;1999.90;999.90;;;18.90;97.40;;;;;;5054263;28;20048;-69
2023/07/03 05:11:20;;;;;;;1999.90;999.90;;;18.90;97.30;;;;;;5051590;28;20052;-71
2023/07/03 05:13:47;;;;;;;1999.90;999.90;;;18.80;97.50;;;;;;5046954;28;20021;-70
2023/07/03 05:16:15;;;;;;;1999.90;999.90;;;18.70;97.30;;;;;;5056039;28;20036;-71
2023/07/03 05:18:42;;;;;;;1999.90;999.90;;;18.70;97.60;;;;;;5047295;28;20440;-71
2023/07/03 05:21:10;;;;;;;1999.90;999.90;;;18.70;98.10;;;;;;5049527;28;20032;-72
2023/07/03 05:23:38;;;;;;;1999.90;999.90;;;18.70;98.00;;;;;;5056902;28;20025;-71
2023/07/03 05:26:05;;;;;;;1999.90;999.90;;;18.80;98.00;;;;;;5050327;28;20040;-71
2023/07/03 05:28:33;;;;;;;1999.90;999.90;;;18.80;97.80;;;;;;5051197;28;20065;-71
2023/07/03 05:31:01;;;;;;;1999.90;999.90;;;18.70;97.90;;;;;;5051914;28;20084;-70
2023/07/03 05:33:29;;;;;;;1999.90;999.90;;;18.60;97.90;;;;;;5056093;28;20077;-72
2023/07/03 05:36:03;;;;;;;1999.90;999.90;;;18.50;98.30;;;;;;5051476;28;20029;-71
2023/07/03 05:38:31;;;;;;;1999.90;999.90;;;18.40;98.50;;;;;;5051260;28;20479;-70
2023/07/03 05:40:59;;;;;;;1999.90;999.90;;;18.30;98.50;;;;;;5055722;28;20028;-69
2023/07/03 05:43:26;;;;;;;1999.90;999.90;;;18.30;98.80;;;;;;5055020;28;20102;-70
2023/07/03 05:45:54;;;;;;;1999.90;999.90;;;18.20;98.80;;;;;;5049585;28;20079;-72
2023/07/03 05:48:22;;;;;;;1999.90;999.90;;;18.10;99.30;;;;;;5050662;28;20124;-71
2023/07/03 05:50:49;;;;;;;1999.90;999.90;;;18.10;99.20;;;;;;5049926;28;20028;-71
2023/07/03 05:53:17;;;;;;;1999.90;999.90;;;18.00;99.40;;;;;;5051016;28;20021;-72
2023/07/03 05:55:52;;;;;;;1999.90;999.90;;;18.00;99.40;;;;;;5049323;28;20036;-72
2023/07/03 05:58:19;;;;;;;1999.90;999.90;;;17.90;99.60;;;;;;5050607;28;20044;-72
2023/07/03 06:00:48;;;;;;;1999.90;999.90;;;17.90;99.80;;;;;;5050867;28;20499;-71
2023/07/03 06:03:16;;;;;;;1999.90;999.90;;;17.80;99.90;;;;;;5052099;28;20120;-72
2023/07/03 06:05:44;;;;;;;1999.90;999.90;;;17.80;99.90;;;;;;5047143;28;20036;-71
2023/07/03 06:08:11;;;;;;;1999.90;999.90;;;17.70;99.90;;;;;;5061306;28;20041;-71
2023/07/03 06:10:40;;;;;;;1999.90;999.90;;;17.70;99.90;;;;;;5045580;28;20047;-70
2023/07/03 06:13:07;;;;;;;1999.90;999.90;;;17.70;99.90;;;;;;5051404;28;20478;-71
2023/07/03 06:15:35;;;;;;;1999.90;999.90;;;17.60;99.90;;;;;;5051644;28;20037;-71
2023/07/03 06:18:02;;;;;;;1999.90;999.90;;;17.50;99.90;;;;;;5040601;28;20037;-70
2023/07/03 06:20:30;;;;;;;1999.90;999.90;;;17.40;99.90;;;;;;5050859;28;20025;-71
2023/07/03 06:23:01;;;;;;;1999.90;999.90;;;17.30;99.90;;;;;;5052421;28;20029;-72
2023/07/03 06:25:28;;;;;;;1999.90;999.90;;;17.20;99.90;;;;;;5038974;28;20116;-71
2023/07/03 06:27:56;;;;;;;1999.90;999.90;;;17.10;99.90;;;;;;5060367;28;20036;-71
2023/07/03 06:30:23;;;;;;;1999.90;999.90;;;17.10;99.90;;;;;;5058288;28;20033;-71
2023/07/03 06:32:50;;;;;;;1999.90;999.90;;;17.00;99.90;;;;;;5061619;28;20079;-72
2023/07/03 06:35:19;;;;;;;1999.90;999.90;;;16.90;99.90;;;;;;5054472;28;20051;-72
2023/07/03 06:37:46;;;;;;;1999.90;999.90;;;16.90;99.90;;;;;;5053463;28;20041;-70
2023/07/03 06:40:15;;;;;;;1999.90;999.90;;;16.80;99.90;;;;;;5056056;28;20368;-71
2023/07/03 06:42:43;;;;;;;1999.90;999.90;;;16.80;99.90;;;;;;5060014;28;20111;-72
2023/07/03 06:45:11;;;;;;;1999.90;999.90;;;16.70;99.90;;;;;;5057303;28;20035;-71
2023/07/03 06:47:39;;;;;;;1999.90;999.90;;;16.70;99.90;;;;;;5062056;28;20048;-72
2023/07/03 06:50:07;;;;;;;1999.90;999.90;;;16.70;99.90;;;;;;5050703;28;20026;-71
2023/07/03 06:52:38;;;;;;;1999.90;999.90;;;16.60;99.90;;;;;;5058453;28;20553;-72
2023/07/03 06:55:06;;;;;;;1999.90;999.90;;;16.50;99.90;;;;;;5046516;28;20033;-71
2023/07/03 06:57:36;;;;;;;1999.90;999.90;;;16.40;99.90;;;;;;5056096;28;20378;-72
2023/07/03 07:00:05;;;;;;;1999.90;999.90;;;16.40;99.90;;;;;;5053061;28;20498;-69
2023/07/03 07:02:33;;;;;;;1999.90;999.90;;;16.30;99.90;;;;;;5056622;28;20121;-70
2023/07/03 07:05:00;;;;;;;1999.90;999.90;;;16.30;99.90;;;;;;5057812;28;20040;-70
2023/07/03 07:07:29;;;;;;;1999.90;999.90;;;16.20;99.90;;;;;;5059449;28;20055;-70
2023/07/03 07:09:56;;;;;;;1999.90;999.90;;;16.10;99.90;;;;;;5053412;28;20697;-71
2023/07/03 07:12:24;;;;;;;1999.90;999.90;;;16.00;99.90;;;;;;5060308;28;20029;-70
2023/07/03 07:14:51;;;;;;;1999.90;999.90;;;16.00;99.90;;;;;;5046403;28;20028;-71
2023/07/03 07:17:18;;;;;;;1999.90;999.90;;;15.90;99.90;;;;;;5054461;28;20373;-70
2023/07/03 07:19:46;;;;;;;1999.90;999.90;;;16.00;99.90;;;;;;5046828;28;20076;-70
2023/07/03 07:22:13;;;;;;;1999.90;999.90;;;16.00;99.90;;;;;;5053435;28;20058;-69
2023/07/03 07:24:40;;;;;;;1999.90;999.90;;;15.90;99.90;;;;;;5052634;28;20021;-70
2023/07/03 07:27:08;;;;;;;1999.90;999.90;;;15.90;99.90;;;;;;5056940;28;20078;-73
2023/07/03 07:29:35;;;;;;;1999.90;999.90;;;16.00;99.90;;;;;;5051526;28;20112;-72
2023/07/03 07:32:02;;;;;;;1999.90;999.90;;;15.90;99.90;;;;;;5051643;28;20032;-72
2023/07/03 07:34:30;;;;;;;1999.90;999.90;;;15.90;99.90;;;;;;5055314;28;20032;-73
2023/07/03 07:36:57;;;;;;;1999.90;999.90;;;16.00;99.90;;;;;;5051050;28;20035;-74
2023/07/03 07:39:26;;;;;;;1999.90;999.90;;;15.90;99.90;;;;;;5051878;28;20025;-76
2023/07/03 07:41:56;;;;;;;1999.90;999.90;;;15.90;99.90;;;;;;5059807;28;20119;-75
2023/07/03 07:44:23;;;;;;;1999.90;999.90;;;15.90;99.90;;;;;;5056588;28;20025;-74
2023/07/03 07:46:50;;;;;;;1999.90;999.90;;;15.90;99.90;;;;;;5060875;28;20041;-73
2023/07/03 07:49:18;;;;;;;1999.90;999.90;;;15.80;99.90;;;;;;5055372;28;20036;-73
2023/07/03 07:51:45;;;;;;;1999.90;999.90;;;15.80;99.90;;;;;;5056435;28;20036;-72
2023/07/03 07:54:12;;;;;;;1999.90;999.90;;;15.70;99.90;;;;;;5057937;28;20024;-73
2023/07/03 07:56:40;;;;;;;1999.90;999.90;;;15.70;99.90;;;;;;5052722;28;20047;-70
2023/07/03 07:59:07;;;;;;;1999.90;999.90;;;15.60;99.90;;;;;;5059626;28;20074;-73
2023/07/03 08:01:34;;;;;;;1999.90;999.90;;;15.60;99.90;;;;;;5049807;28;20033;-74
2023/07/03 08:04:01;;;;;;;1999.90;999.90;;;15.60;99.90;;;;;;5057239;28;20030;-74
2023/07/03 08:06:29;;;;;;;1999.90;999.90;;;15.60;99.90;;;;;;5055310;28;20505;-73
2023/07/03 08:08:56;;;;;;;1999.90;999.90;;;15.50;99.90;;;;;;5057100;28;20056;-73
2023/07/03 08:11:29;;;;;;;1999.90;999.90;;;15.50;99.90;;;;;;5059828;28;20402;-73
2023/07/03 08:13:56;;;;;;;1999.90;999.90;;;15.50;99.90;;;;;;5051359;28;20107;-73
2023/07/03 08:16:24;;;;;;;1999.90;999.90;;;15.50;99.90;;;;;;5051808;28;20488;-73
2023/07/03 08:18:51;;;;;;;1999.90;999.90;;;15.50;99.90;;;;;;5053430;28;20029;-74
2023/07/03 08:21:18;;;;;;;1999.90;999.90;;;15.50;99.90;;;;;;5053655;28;20021;-72
2023/07/03 08:23:46;;;;;;;1999.90;999.90;;;15.50;99.90;;;;;;5050459;28;20027;-72
2023/07/03 08:26:21;;;;;;;1999.90;999.90;;;15.40;99.90;;;;;;5055656;28;20533;-72
2023/07/03 08:28:49;;;;;;;1999.90;999.90;;;15.40;99.90;;;;;;5056811;28;20395;-73
2023/07/03 08:31:17;;;;;;;1999.90;999.90;;;15.40;99.90;;;;;;5051701;28;20123;-72
2023/07/03 08:33:45;;;;;;;1999.90;999.90;;;15.40;99.90;;;;;;5055644;28;20535;-72
2023/07/03 08:36:12;;;;;;;1999.90;999.90;;;15.40;99.90;;;;;;5052399;28;20035;-72
2023/07/03 08:38:39;;;;;;;1999.90;999.90;;;15.40;99.90;;;;;;5053431;28;20460;-72
2023/07/03 08:41:09;;;;;;;1999.90;999.90;;;15.40;99.90;;;;;;5053803;28;20028;-73
2023/07/03 08:43:42;;;;;;;1999.90;999.90;;;15.40;99.90;;;;;;5056408;28;20052;-74
2023/07/03 08:46:17;;;;;;;1999.90;999.90;;;15.40;99.90;;;;;;5056671;28;20028;-74
2023/07/03 08:48:48;;;;;;;1999.90;999.90;;;15.40;99.90;;;;;;5055496;28;20047;-78
2023/07/03 08:51:18;;;;;;;1999.90;999.90;;;15.40;99.90;;;;;;5051672;28;20025;-75
2023/07/03 08:53:51;;;;;;;1999.90;999.90;;;15.40;99.90;;;;;;5051089;28;20106;-72
2023/07/03 08:56:22;;;;;;;1999.90;999.90;;;15.40;99.90;;;;;;5046973;28;20067;-74
2023/07/03 08:58:55;;;;;;;1999.90;999.90;;;15.40;99.90;;;;;;5058062;28;20025;-73
2023/07/03 09:01:50;;;;;;;1999.90;999.90;;;15.50;99.90;;;;;;5050561;28;20028;-73
2023/07/03 09:04:24;;;;;;;1999.90;999.90;;;15.40;99.90;;;;;;5045554;28;20052;-73
2023/07/03 09:07:05;;;;;;;1999.90;999.90;;;15.50;99.90;;;;;;5057871;28;20059;-73
2023/07/03 09:10:04;;;;;;;1999.90;999.90;;;15.40;99.90;;;;;;5049704;28;20044;-74
2023/07/03 09:13:01;;;;;;;1999.90;999.90;;;15.40;99.90;;;;;;5056972;28;20104;-73
2023/07/03 09:15:30;;;;;;;;;;;15.30;99.90;;;;;;5039189;28;20041;-72
2023/07/03 09:18:01;;;;;;;1999.90;999.90;;;15.30;99.90;;;;;;5057150;28;19934;-72
2023/07/03 09:20:30;;;;;;;1999.90;999.90;;;15.30;99.90;;;;;;5050046;28;20036;-74
2023/07/03 09:23:23;;;;;;;1999.90;999.90;;;15.30;99.90;;;;;;5057138;28;20100;-73
2023/07/03 09:25:51;;;;;;;1999.90;999.90;;;15.30;99.90;;;;;;5051755;28;20037;-74
2023/07/03 09:28:18;;;;;;;1999.90;999.90;;;15.20;99.90;;;;;;5056849;28;20029;-73
2023/07/03 09:30:46;;;;;;;1999.90;999.90;;;15.20;99.90;;;;;;5048649;28;20029;-72
2023/07/03 09:33:14;;;;;;;1999.90;999.90;;;15.20;99.90;;;;;;5059339;28;20498;-75
2023/07/03 09:35:41;;;;;;;1999.90;999.90;;;15.10;99.90;;;;;;5047732;28;20178;-72
2023/07/03 09:38:17;;;;;;;1999.90;999.90;;;15.10;99.90;;;;;;5047888;28;20055;-75
2023/07/03 09:40:48;;;;;;;1999.90;999.90;;;15.00;99.90;;;;;;5051103;28;20036;-75
2023/07/03 09:43:20;;;;;;;1999.90;999.90;;;15.10;99.90;;;;;;5057333;28;20036;-74
2023/07/03 09:45:48;;;;;;;1999.90;999.90;;;15.00;99.90;;;;;;5055946;28;20033;-73
2023/07/03 09:48:24;;;;;;;1999.90;999.90;;;15.00;99.90;;;;;;5060607;28;20033;-72
2023/07/03 09:50:52;;;;;;;1999.90;999.90;;;15.00;99.90;;;;;;5056821;28;20048;-72
2023/07/03 09:53:27;;;;;;;1999.90;999.90;;;15.00;99.90;;;;;;5061226;28;20109;-74
2023/07/03 09:56:02;;;;;;;1999.90;999.90;;;15.10;99.90;;;;;;5056069;28;20530;-74
2023/07/03 09:58:30;;;;;;;1999.90;999.90;;;15.00;99.90;;;;;;5058450;28;20399;-74
2023/07/03 10:01:00;;;;;;;1999.90;999.90;;;15.00;99.90;;;;;;5060204;28;20024;-73
2023/07/03 10:03:32;;;;;;;1999.90;999.90;;;15.10;99.90;;;;;;5060365;28;20088;-73
2023/07/03 10:06:27;;;;;;;1999.90;999.90;;;15.10;99.90;;;;;;5062121;28;20056;-73
2023/07/03 10:09:01;;;;;;;1999.90;999.90;;;15.10;99.90;;;;;;5061214;28;20514;-72
2023/07/03 10:11:53;;;;;;;1999.90;999.90;;;15.00;99.90;;;;;;5059031;28;20021;-75
2023/07/03 10:14:28;;;;;;;1999.90;999.90;;;15.00;99.90;;;;;;5061193;28;20103;-73
2023/07/03 10:16:56;;;;;;;1999.90;999.90;;;15.00;99.90;;;;;;5062605;28;20086;-72
2023/07/03 10:19:24;;;;;;;1999.90;999.90;;;15.00;99.90;;;;;;5060232;28;20029;-73
2023/07/03 10:21:53;;;;;;;1999.90;999.90;;;15.00;99.90;;;;;;5057128;28;20043;-76
2023/07/03 10:24:21;;;;;;;1999.90;999.90;;;15.00;99.90;;;;;;5050589;28;20131;-74
2023/07/03 10:26:53;;;;;;;1999.90;999.90;;;14.90;99.90;;;;;;5050481;28;20381;-75
2023/07/03 10:29:51;;;;;;;1999.90;999.90;;;15.00;99.90;;;;;;5060224;28;20017;-73
2023/07/03 10:32:20;;;;;;;1999.90;999.90;;;15.00;99.90;;;;;;5058365;28;20047;-75
2023/07/03 10:35:17;;;;;;;1999.90;999.90;;;15.00;99.90;;;;;;5067191;28;20044;-75
2023/07/03 10:38:25;;;;;;;1999.90;999.90;;;15.00;99.90;;;;;;5059178;28;20035;-73
2023/07/03 10:41:25;;;;;;;1999.90;999.90;;;15.00;99.90;;;;;;5047971;28;20431;-73
2023/07/03 10:44:09;;;;;;;1999.90;999.90;;;15.00;99.90;;;;;;5061199;28;20087;-73
2023/07/03 10:46:43;;;;;;;1999.90;999.90;;;14.90;99.90;;;;;;5053056;28;20033;-74
2023/07/03 10:49:21;;;;;;;1999.90;999.90;;;14.90;99.90;;;;;;5061064;28;20013;-76
2023/07/03 10:52:10;;;;;;;1999.90;999.90;;;14.90;99.90;;;;;;5055242;28;20028;-74
2023/07/03 10:54:52;;;;;;;1999.90;999.90;;;14.80;99.90;;;;;;5061351;28;20146;-74
2023/07/03 10:57:42;;;;;;;1999.90;999.90;;;14.80;99.90;;;;;;5055931;28;20079;-75
2023/07/03 11:00:17;;;;;;;1999.90;999.90;;;14.80;99.90;;;;;;5058744;28;20024;-74
2023/07/03 11:03:42;;;;;;;1999.90;999.90;;;14.80;99.90;;;;;;5056526;28;20113;-72
2023/07/03 11:06:22;;;;;;;1999.90;999.90;;;14.80;99.90;;;;;;4998045;28;20053;-74
2023/07/03 11:09:06;;;;;;;1999.90;999.90;;;14.80;99.90;;;;;;5058445;28;20064;-73
2023/07/03 11:11:50;;;;;;;1999.90;999.90;;;14.80;99.90;;;;;;5062682;28;20502;-72
2023/07/03 11:14:20;;;;;;;1999.90;999.90;;;14.70;99.90;;;;;;5056979;28;20037;-73
2023/07/03 11:17:15;;;;;;;1999.90;999.90;;;14.70;99.90;;;;;;5054733;28;20021;-72
2023/07/03 11:19:57;;;;;;;1999.90;999.90;;;14.70;99.90;;;;;;5053973;28;20063;-72
2023/07/03 11:22:39;;;;;;;1999.90;999.90;;;14.70;99.90;;;;;;5061357;28;20037;-72
2023/07/03 11:25:09;;;;;;;1999.90;999.90;;;14.70;99.90;;;;;;5058926;28;20029;-73
2023/07/03 11:28:08;;;;;;;1999.90;999.90;;;14.70;99.90;;;;;;5059551;28;20029;-74
2023/07/03 11:30:37;;;;;;;1999.90;999.90;;;14.70;99.90;;;;;;5060457;28;20510;-75
2023/07/03 11:33:05;;;;;;;1999.90;999.90;;;14.70;99.90;;;;;;5060545;28;20036;-75
2023/07/03 11:35:33;;;;;;;1999.90;999.90;;;14.70;99.90;;;;;;5058090;28;20029;-74
2023/07/03 11:38:06;;;;;;;1999.90;999.90;;;14.80;99.90;;;;;;5062446;28;20024;-73
2023/07/03 11:40:59;;;;;;;1999.90;999.90;;;14.80;99.90;;;;;;5057347;28;20083;-74
2023/07/03 11:43:41;;;;;;;1999.90;999.90;;;14.70;99.90;;;;;;5056776;28;20016;-74
2023/07/03 11:46:24;;;;;;;1999.90;999.90;;;14.70;99.90;;;;;;5062907;28;20054;-74
2023/07/03 11:48:58;;;;;;;1999.90;999.90;;;14.70;99.90;;;;;;5063862;28;20041;-74
2023/07/03 11:51:37;;;;;;;1999.90;999.90;;;14.70;99.90;;;;;;5061158;28;20016;-75
2023/07/03 11:54:27;;;;;;;1999.90;999.90;;;14.70;99.90;;;;;;5062818;28;20035;-75
2023/07/03 11:57:32;;;;;;;1999.90;999.90;;;14.70;99.90;;;;;;5056225;28;20086;-75
2023/07/03 12:00:18;;;;;;;1999.90;999.90;;;14.60;99.90;;;;;;5054293;28;20545;-75
2023/07/03 12:03:03;;;;;;;1999.90;999.90;;;14.60;99.90;;;;;;5060245;28;20048;-75
2023/07/03 12:05:48;;;;;;;1999.90;999.90;;;14.60;99.90;;;;;;5060765;28;20025;-75
2023/07/03 12:08:27;;;;;;;1999.90;999.90;;;14.50;99.90;;;;;;5060688;28;20105;-75
2023/07/03 12:11:00;;;;;;;1999.90;999.90;;;14.50;99.90;;;;;;5059446;28;20476;-74
2023/07/03 12:13:43;;;;;;;1999.90;999.90;;;14.40;99.90;;;;;;5053787;28;20070;-75
2023/07/03 12:16:28;;;;;;;1999.90;999.90;;;14.40;99.90;;;;;;5052980;28;20039;-76
2023/07/03 12:19:02;;;;;;;1999.90;999.90;;;14.40;99.90;;;;;;5053398;28;20028;-75
2023/07/03 12:21:46;;;;;;;1999.90;999.90;;;14.40;99.90;;;;;;5050638;28;20435;-74